MiSS Ellie — WDJ2256 — position and weather

sailwx.info

Track history (hours):
 
Tides and Currents Weather Stations Pressure Air Temp Water Temp Dewpoint Dewpoint Depression Visibility Wind Speed Wind Dir Waves Ship Positions

MiSS Ellie

Owner: Magnolia Marine Transportation Company, Vicksburg, MS. More information available from US FCC via Universal Licensing System and Coast Guard Vessel Documentation Center.

Last reported at 2017-Nov-24 05:30 UTC. Time now 2017-Nov-24 05:42 UTC.
Position N 29°32' W 094°53'.

Length 33 m.

Type: Towing. MMSI: 367756630.

Date/timePositionNaut miles runAvg speedWind from/ knotsBaromVisibWave heightAir tempDewpointWater temp
2017-Nov-24 05:30N 29°32' W 094°53'5 9.3
2017-Nov-24 05:00N 29°35' W 094°56'4 8.8
2017-Nov-24 04:30N 29°39' W 094°58'4 8.0
2017-Nov-24 04:00N 29°43' W 095°01'3 6.1
2017-Nov-24 03:30N 29°45' W 095°04'3 2.2
2017-Nov-24 02:17N 29°47' W 095°04'0 0.1
2017-Nov-24 01:41N 29°47' W 095°04'0 0.3
2017-Nov-24 01:25N 29°47' W 095°04'2 2.4
2017-Nov-24 00:47N 29°46' W 095°05'0 0.0
2017-Nov-23 10:41N 29°46' W 095°05'0 0.0
2017-Nov-23 03:29N 29°46' W 095°05'  
2017-Nov-20 00:29N 29°39' W 094°58'4 8.8
2017-Nov-19 23:59N 29°35' W 094°56'72 1.8
2017-Nov-18 08:14N 30°04' W 093°40'1 4.9
2017-Nov-18 07:58N 30°04' W 093°39'2 4.8
2017-Nov-18 07:30N 30°04' W 093°36'2 4.8
2017-Nov-18 06:59N 30°04' W 093°33'2 4.6
2017-Nov-18 06:30N 30°04' W 093°31'2 4.6
2017-Nov-18 06:00N 30°04' W 093°28'2 4.6
2017-Nov-18 05:30N 30°04' W 093°25'3 5.1
2017-Nov-18 05:00N 30°04' W 093°23'2 3.2
2017-Nov-18 04:30N 30°04' W 093°21'2 3.8
2017-Nov-18 04:00N 30°06' W 093°19'2 3.0
2017-Nov-18 03:30N 30°05' W 093°18'0 0.9
2017-Nov-18 03:00N 30°05' W 093°17'1 1.9
2017-Nov-18 02:30N 30°04' W 093°16'0 0.1
2017-Nov-18 02:00N 30°04' W 093°16'0 0.2
2017-Nov-18 01:30N 30°04' W 093°16'0 0.0
2017-Nov-18 01:00N 30°04' W 093°16'0 0.0
2017-Nov-18 00:30N 30°04' W 093°16'0 0.0
2017-Nov-18 00:00N 30°04' W 093°16'0 0.0
2017-Nov-17 23:30N 30°04' W 093°16'0 0.1
2017-Nov-17 23:00N 30°04' W 093°16'0 0.0
2017-Nov-17 22:30N 30°04' W 093°16'0 0.0
2017-Nov-17 22:00N 30°04' W 093°16'0 0.0
2017-Nov-17 21:30N 30°04' W 093°16'0 0.1
2017-Nov-17 21:00N 30°04' W 093°16'0 0.0
2017-Nov-17 20:30N 30°04' W 093°16'0 0.0
2017-Nov-17 20:00N 30°04' W 093°16'0 0.0
2017-Nov-17 19:30N 30°04' W 093°16'0 0.1
2017-Nov-17 19:00N 30°04' W 093°16'0 0.0
2017-Nov-17 18:30N 30°04' W 093°16'0 0.0
2017-Nov-17 18:00N 30°04' W 093°16'0 0.0
2017-Nov-17 17:30N 30°04' W 093°16'0 0.0
2017-Nov-17 17:00N 30°04' W 093°16'0 0.1
2017-Nov-17 16:30N 30°04' W 093°16'0 0.0
2017-Nov-17 16:00N 30°04' W 093°16'1 2.1
2017-Nov-17 15:30N 30°03' W 093°16'2 3.6
2017-Nov-17 15:00N 30°02' W 093°15'2 3.8
2017-Nov-17 14:30N 30°00' W 093°14'2 4.3
2017-Nov-17 14:00N 29°59' W 093°12'2 4.2
2017-Nov-17 13:30N 29°57' W 093°10'2 4.0
2017-Nov-17 13:00N 29°56' W 093°08'2 4.7
2017-Nov-17 12:30N 29°56' W 093°06'2 4.6
2017-Nov-17 12:00N 29°56' W 093°03'32 4.4
2017-Nov-17 04:42N 29°53' W 092°26'1 4.4
2017-Nov-17 04:25N 29°53' W 092°25'2 4.1
2017-Nov-17 03:57N 29°52' W 092°23'2 2.7
2017-Nov-17 03:21N 29°51' W 092°22'1 3.5
2017-Nov-17 03:00N 29°51' W 092°21'2 3.7
2017-Nov-17 02:29N 29°50' W 092°18'2 3.3
2017-Nov-17 02:00N 29°49' W 092°17'2 3.5
2017-Nov-17 01:30N 29°48' W 092°15'2 3.7
2017-Nov-17 01:00N 29°48' W 092°13'1 2.3
2017-Nov-17 00:30N 29°47' W 092°12'1 2.3
2017-Nov-17 00:00N 29°47' W 092°11'0 0.8
2017-Nov-16 23:30N 29°47' W 092°11'2 4.3
2017-Nov-16 23:00N 29°47' W 092°08'2 4.7
2017-Nov-16 22:30N 29°48' W 092°06'2 4.8
2017-Nov-16 22:00N 29°49' W 092°03'3 5.3
2017-Nov-16 21:30N 29°50' W 092°00'138 2.8
2017-Nov-14 20:35N 31°60' W 091°05'1 8.6
2017-Nov-14 20:28N 32°01' W 091°05'6 7.6
2017-Nov-14 19:42N 32°06' W 091°06'1 7.3
2017-Nov-14 19:30N 32°08' W 091°06'4 8.2
2017-Nov-14 19:00N 32°07' W 091°02'4 8.3
2017-Nov-14 18:30N 32°11' W 090°60'4 9.0
2017-Nov-14 18:00N 32°15' W 090°58'4 7.8
2017-Nov-14 17:30N 32°18' W 090°55'3 5.8
2017-Nov-14 17:00N 32°21' W 090°54'0 0.1
2017-Nov-14 16:30N 32°21' W 090°54'0 0.0
2017-Nov-14 16:00N 32°21' W 090°54'0 0.0
2017-Nov-14 15:30N 32°21' W 090°54'0 0.0
2017-Nov-14 15:00N 32°21' W 090°54'0 0.0
2017-Nov-14 14:30N 32°21' W 090°54'0 0.0
2017-Nov-14 14:00N 32°21' W 090°54'0 0.0
2017-Nov-14 13:30N 32°21' W 090°54'0 0.0
2017-Nov-14 13:00N 32°21' W 090°54'0 0.0
2017-Nov-14 12:30N 32°21' W 090°54'0 0.0
2017-Nov-14 12:00N 32°21' W 090°54'0 0.3
2017-Nov-14 11:30N 32°20' W 090°54'0 0.1
2017-Nov-14 11:00N 32°21' W 090°54'0 0.0
2017-Nov-14 10:30N 32°21' W 090°54'0 0.1
2017-Nov-14 10:00N 32°21' W 090°54'0 0.1
2017-Nov-14 09:31N 32°21' W 090°53'0 0.2
2017-Nov-14 09:00N 32°21' W 090°54'2 4.3
2017-Nov-14 08:30N 32°19' W 090°55'1 2.2
2017-Nov-14 08:00N 32°18' W 090°56'1 1.4
2017-Nov-14 07:30N 32°17' W 090°56'3 5.3
2017-Nov-14 07:00N 32°15' W 090°58'2 5.0
2017-Nov-14 06:30N 32°13' W 090°59'3 5.6
2017-Nov-14 06:00N 32°10' W 090°60'  
Track history (hours):
 
Tides and Currents Weather Stations Pressure Air Temp Water Temp Dewpoint Dewpoint Depression Visibility Wind Speed Wind Dir Waves Ship Positions

MiSS Ellie

Owner: Magnolia Marine Transportation Company, Vicksburg, MS. More information available from US FCC via Universal Licensing System and Coast Guard Vessel Documentation Center.

Last reported at 2017-Nov-24 05:30 UTC. Time now 2017-Nov-24 05:42 UTC.
Position N 29°32' W 094°53'.

Length 33 m.

Type: Towing. MMSI: 367756630.

Date/timePositionNaut miles runAvg speedWind from/ knotsBaromVisibWave heightAir tempDewpointWater temp
2017-Nov-24 05:30N 29°32' W 094°53'5 9.3
2017-Nov-24 05:00N 29°35' W 094°56'4 8.8
2017-Nov-24 04:30N 29°39' W 094°58'4 8.0
2017-Nov-24 04:00N 29°43' W 095°01'3 6.1
2017-Nov-24 03:30N 29°45' W 095°04'3 2.2
2017-Nov-24 02:17N 29°47' W 095°04'0 0.1
2017-Nov-24 01:41N 29°47' W 095°04'0 0.3
2017-Nov-24 01:25N 29°47' W 095°04'2 2.4
2017-Nov-24 00:47N 29°46' W 095°05'0 0.0
2017-Nov-23 10:41N 29°46' W 095°05'0 0.0
2017-Nov-23 03:29N 29°46' W 095°05'  
2017-Nov-20 00:29N 29°39' W 094°58'4 8.8
2017-Nov-19 23:59N 29°35' W 094°56'72 1.8
2017-Nov-18 08:14N 30°04' W 093°40'1 4.9
2017-Nov-18 07:58N 30°04' W 093°39'2 4.8
2017-Nov-18 07:30N 30°04' W 093°36'2 4.8
2017-Nov-18 06:59N 30°04' W 093°33'2 4.6
2017-Nov-18 06:30N 30°04' W 093°31'2 4.6
2017-Nov-18 06:00N 30°04' W 093°28'2 4.6
2017-Nov-18 05:30N 30°04' W 093°25'3 5.1
2017-Nov-18 05:00N 30°04' W 093°23'2 3.2
2017-Nov-18 04:30N 30°04' W 093°21'2 3.8
2017-Nov-18 04:00N 30°06' W 093°19'2 3.0
2017-Nov-18 03:30N 30°05' W 093°18'0 0.9
2017-Nov-18 03:00N 30°05' W 093°17'1 1.9
2017-Nov-18 02:30N 30°04' W 093°16'0 0.1
2017-Nov-18 02:00N 30°04' W 093°16'0 0.2
2017-Nov-18 01:30N 30°04' W 093°16'0 0.0
2017-Nov-18 01:00N 30°04' W 093°16'0 0.0
2017-Nov-18 00:30N 30°04' W 093°16'0 0.0
2017-Nov-18 00:00N 30°04' W 093°16'0 0.0
2017-Nov-17 23:30N 30°04' W 093°16'0 0.1
2017-Nov-17 23:00N 30°04' W 093°16'0 0.0
2017-Nov-17 22:30N 30°04' W 093°16'0 0.0
2017-Nov-17 22:00N 30°04' W 093°16'0 0.0
2017-Nov-17 21:30N 30°04' W 093°16'0 0.1
2017-Nov-17 21:00N 30°04' W 093°16'0 0.0
2017-Nov-17 20:30N 30°04' W 093°16'0 0.0
2017-Nov-17 20:00N 30°04' W 093°16'0 0.0
2017-Nov-17 19:30N 30°04' W 093°16'0 0.1
2017-Nov-17 19:00N 30°04' W 093°16'0 0.0
2017-Nov-17 18:30N 30°04' W 093°16'0 0.0
2017-Nov-17 18:00N 30°04' W 093°16'0 0.0
2017-Nov-17 17:30N 30°04' W 093°16'0 0.0
2017-Nov-17 17:00N 30°04' W 093°16'0 0.1
2017-Nov-17 16:30N 30°04' W 093°16'0 0.0
2017-Nov-17 16:00N 30°04' W 093°16'1 2.1
2017-Nov-17 15:30N 30°03' W 093°16'2 3.6
2017-Nov-17 15:00N 30°02' W 093°15'2 3.8
2017-Nov-17 14:30N 30°00' W 093°14'2 4.3
2017-Nov-17 14:00N 29°59' W 093°12'2 4.2
2017-Nov-17 13:30N 29°57' W 093°10'2 4.0
2017-Nov-17 13:00N 29°56' W 093°08'2 4.7
2017-Nov-17 12:30N 29°56' W 093°06'2 4.6
2017-Nov-17 12:00N 29°56' W 093°03'32 4.4
2017-Nov-17 04:42N 29°53' W 092°26'1 4.4
2017-Nov-17 04:25N 29°53' W 092°25'2 4.1
2017-Nov-17 03:57N 29°52' W 092°23'2 2.7
2017-Nov-17 03:21N 29°51' W 092°22'1 3.5
2017-Nov-17 03:00N 29°51' W 092°21'2 3.7
2017-Nov-17 02:29N 29°50' W 092°18'2 3.3
2017-Nov-17 02:00N 29°49' W 092°17'2 3.5
2017-Nov-17 01:30N 29°48' W 092°15'2 3.7
2017-Nov-17 01:00N 29°48' W 092°13'1 2.3
2017-Nov-17 00:30N 29°47' W 092°12'1 2.3
2017-Nov-17 00:00N 29°47' W 092°11'0 0.8
2017-Nov-16 23:30N 29°47' W 092°11'2 4.3
2017-Nov-16 23:00N 29°47' W 092°08'2 4.7
2017-Nov-16 22:30N 29°48' W 092°06'2 4.8
2017-Nov-16 22:00N 29°49' W 092°03'3 5.3
2017-Nov-16 21:30N 29°50' W 092°00'138 2.8
2017-Nov-14 20:35N 31°60' W 091°05'1 8.6
2017-Nov-14 20:28N 32°01' W 091°05'6 7.6
2017-Nov-14 19:42N 32°06' W 091°06'1 7.3
2017-Nov-14 19:30N 32°08' W 091°06'4 8.2
2017-Nov-14 19:00N 32°07' W 091°02'4 8.3
2017-Nov-14 18:30N 32°11' W 090°60'4 9.0
2017-Nov-14 18:00N 32°15' W 090°58'4 7.8
2017-Nov-14 17:30N 32°18' W 090°55'3 5.8
2017-Nov-14 17:00N 32°21' W 090°54'0 0.1
2017-Nov-14 16:30N 32°21' W 090°54'0 0.0
2017-Nov-14 16:00N 32°21' W 090°54'0 0.0
2017-Nov-14 15:30N 32°21' W 090°54'0 0.0
2017-Nov-14 15:00N 32°21' W 090°54'0 0.0
2017-Nov-14 14:30N 32°21' W 090°54'0 0.0
2017-Nov-14 14:00N 32°21' W 090°54'0 0.0
2017-Nov-14 13:30N 32°21' W 090°54'0 0.0
2017-Nov-14 13:00N 32°21' W 090°54'0 0.0
2017-Nov-14 12:30N 32°21' W 090°54'0 0.0
2017-Nov-14 12:00N 32°21' W 090°54'0 0.3
2017-Nov-14 11:30N 32°20' W 090°54'0 0.1
2017-Nov-14 11:00N 32°21' W 090°54'0 0.0
2017-Nov-14 10:30N 32°21' W 090°54'0 0.1
2017-Nov-14 10:00N 32°21' W 090°54'0 0.1
2017-Nov-14 09:31N 32°21' W 090°53'0 0.2
2017-Nov-14 09:00N 32°21' W 090°54'2 4.3
2017-Nov-14 08:30N 32°19' W 090°55'1 2.2
2017-Nov-14 08:00N 32°18' W 090°56'1 1.4
2017-Nov-14 07:30N 32°17' W 090°56'3 5.3
2017-Nov-14 07:00N 32°15' W 090°58'2 5.0
2017-Nov-14 06:30N 32°13' W 090°59'3 5.6
2017-Nov-14 06:00N 32°10' W 090°60'  

Dump ship's entire track history